sensor_id;sensor_type;location;lat;lon;timestamp;P1;durP1;ratioP1;P2;durP2;ratioP2
25653;SDS011;13511;48.622;9.230;2023-03-25T00:00:31;7.18;;;6.70;;
25653;SDS011;13511;48.622;9.230;2023-03-25T00:02:57;7.38;;;6.88;;
25653;SDS011;13511;48.622;9.230;2023-03-25T00:05:23;7.47;;;7.03;;
25653;SDS011;13511;48.622;9.230;2023-03-25T00:07:50;8.30;;;7.70;;
25653;SDS011;13511;48.622;9.230;2023-03-25T00:10:17;7.75;;;7.25;;
25653;SDS011;13511;48.622;9.230;2023-03-25T00:12:43;8.20;;;7.70;;
25653;SDS011;13511;48.622;9.230;2023-03-25T00:15:09;7.10;;;6.60;;
25653;SDS011;13511;48.622;9.230;2023-03-25T00:17:35;7.80;;;7.20;;
25653;SDS011;13511;48.622;9.230;2023-03-25T00:20:02;7.25;;;6.68;;
25653;SDS011;13511;48.622;9.230;2023-03-25T00:22:35;7.25;;;6.85;;
25653;SDS011;13511;48.622;9.230;2023-03-25T00:25:05;7.53;;;6.93;;
25653;SDS011;13511;48.622;9.230;2023-03-25T00:27:31;7.32;;;6.70;;
25653;SDS011;13511;48.622;9.230;2023-03-25T00:29:57;6.80;;;6.30;;
25653;SDS011;13511;48.622;9.230;2023-03-25T00:32:23;7.80;;;7.30;;
25653;SDS011;13511;48.622;9.230;2023-03-25T00:34:49;6.88;;;6.38;;
25653;SDS011;13511;48.622;9.230;2023-03-25T00:37:15;7.43;;;6.80;;
25653;SDS011;13511;48.622;9.230;2023-03-25T00:39:42;7.68;;;7.32;;
25653;SDS011;13511;48.622;9.230;2023-03-25T00:42:09;7.78;;;7.32;;
25653;SDS011;13511;48.622;9.230;2023-03-25T00:44:38;8.20;;;7.47;;
25653;SDS011;13511;48.622;9.230;2023-03-25T00:47:04;7.20;;;6.70;;
25653;SDS011;13511;48.622;9.230;2023-03-25T00:49:30;7.70;;;6.93;;
25653;SDS011;13511;48.622;9.230;2023-03-25T00:51:56;7.22;;;6.82;;
25653;SDS011;13511;48.622;9.230;2023-03-25T00:54:22;7.10;;;6.65;;
25653;SDS011;13511;48.622;9.230;2023-03-25T00:56:49;7.45;;;6.85;;
25653;SDS011;13511;48.622;9.230;2023-03-25T00:59:16;6.90;;;6.53;;
25653;SDS011;13511;48.622;9.230;2023-03-25T01:01:42;6.82;;;6.43;;
25653;SDS011;13511;48.622;9.230;2023-03-25T01:04:10;7.10;;;6.57;;
25653;SDS011;13511;48.622;9.230;2023-03-25T01:06:37;8.90;;;6.93;;
25653;SDS011;13511;48.622;9.230;2023-03-25T01:09:06;7.10;;;6.50;;
25653;SDS011;13511;48.622;9.230;2023-03-25T01:11:33;6.85;;;6.45;;
25653;SDS011;13511;48.622;9.230;2023-03-25T01:14:02;6.70;;;6.30;;
25653;SDS011;13511;48.622;9.230;2023-03-25T01:16:28;6.78;;;6.38;;
25653;SDS011;13511;48.622;9.230;2023-03-25T01:18:54;7.60;;;7.10;;
25653;SDS011;13511;48.622;9.230;2023-03-25T01:21:21;7.20;;;6.70;;
25653;SDS011;13511;48.622;9.230;2023-03-25T01:23:47;6.90;;;6.55;;
25653;SDS011;13511;48.622;9.230;2023-03-25T01:26:13;6.60;;;6.20;;
25653;SDS011;13511;48.622;9.230;2023-03-25T01:28:40;6.68;;;6.20;;
25653;SDS011;13511;48.622;9.230;2023-03-25T01:31:07;6.90;;;6.47;;
25653;SDS011;13511;48.622;9.230;2023-03-25T01:33:33;6.80;;;6.40;;
25653;SDS011;13511;48.622;9.230;2023-03-25T01:36:00;6.45;;;6.15;;
25653;SDS011;13511;48.622;9.230;2023-03-25T01:38:26;6.43;;;6.00;;
25653;SDS011;13511;48.622;9.230;2023-03-25T01:40:54;7.32;;;6.75;;
25653;SDS011;13511;48.622;9.230;2023-03-25T01:43:20;7.25;;;6.70;;
25653;SDS011;13511;48.622;9.230;2023-03-25T01:45:47;7.53;;;6.00;;
25653;SDS011;13511;48.622;9.230;2023-03-25T01:50:42;5.85;;;5.63;;
25653;SDS011;13511;48.622;9.230;2023-03-25T01:53:09;6.70;;;6.47;;
25653;SDS011;13511;48.622;9.230;2023-03-25T01:55:35;6.88;;;6.28;;
25653;SDS011;13511;48.622;9.230;2023-03-25T01:58:03;6.82;;;6.53;;
25653;SDS011;13511;48.622;9.230;2023-03-25T02:00:34;6.93;;;6.32;;
25653;SDS011;13511;48.622;9.230;2023-03-25T02:03:01;6.97;;;6.47;;
25653;SDS011;13511;48.622;9.230;2023-03-25T02:05:36;8.05;;;6.70;;
25653;SDS011;13511;48.622;9.230;2023-03-25T02:08:04;6.20;;;5.90;;
25653;SDS011;13511;48.622;9.230;2023-03-25T02:10:33;6.35;;;6.05;;
25653;SDS011;13511;48.622;9.230;2023-03-25T02:13:00;6.78;;;6.20;;
25653;SDS011;13511;48.622;9.230;2023-03-25T02:15:27;6.82;;;6.53;;
25653;SDS011;13511;48.622;9.230;2023-03-25T02:18:02;6.68;;;6.38;;
25653;SDS011;13511;48.622;9.230;2023-03-25T02:20:44;6.90;;;6.40;;
25653;SDS011;13511;48.622;9.230;2023-03-25T02:39:23;6.25;;;5.95;;
25653;SDS011;13511;48.622;9.230;2023-03-25T02:44:34;7.13;;;6.05;;
25653;SDS011;13511;48.622;9.230;2023-03-25T02:47:03;6.18;;;5.97;;
25653;SDS011;13511;48.622;9.230;2023-03-25T02:49:32;6.15;;;5.93;;
25653;SDS011;13511;48.622;9.230;2023-03-25T02:51:59;6.30;;;5.97;;
25653;SDS011;13511;48.622;9.230;2023-03-25T02:54:26;6.80;;;6.50;;
25653;SDS011;13511;48.622;9.230;2023-03-25T02:56:53;6.18;;;5.97;;
25653;SDS011;13511;48.622;9.230;2023-03-25T02:59:21;6.78;;;6.20;;
25653;SDS011;13511;48.622;9.230;2023-03-25T03:01:47;5.97;;;5.78;;
25653;SDS011;13511;48.622;9.230;2023-03-25T03:04:14;6.10;;;5.90;;
25653;SDS011;13511;48.622;9.230;2023-03-25T03:06:40;5.95;;;5.65;;
25653;SDS011;13511;48.622;9.230;2023-03-25T03:24:34;6.78;;;6.47;;
25653;SDS011;13511;48.622;9.230;2023-03-25T03:29:31;6.80;;;6.40;;
25653;SDS011;13511;48.622;9.230;2023-03-25T03:37:05;6.15;;;5.97;;
25653;SDS011;13511;48.622;9.230;2023-03-25T03:39:35;6.70;;;6.40;;
25653;SDS011;13511;48.622;9.230;2023-03-25T03:42:25;6.70;;;6.40;;
25653;SDS011;13511;48.622;9.230;2023-03-25T03:44:50;6.30;;;6.10;;
25653;SDS011;13511;48.622;9.230;2023-03-25T03:47:18;6.40;;;6.20;;
25653;SDS011;13511;48.622;9.230;2023-03-25T03:49:49;6.40;;;6.10;;
25653;SDS011;13511;48.622;9.230;2023-03-25T03:52:16;6.40;;;6.20;;
25653;SDS011;13511;48.622;9.230;2023-03-25T03:54:50;6.45;;;6.15;;
25653;SDS011;13511;48.622;9.230;2023-03-25T03:57:24;6.47;;;6.10;;
25653;SDS011;13511;48.622;9.230;2023-03-25T04:02:38;6.65;;;6.00;;
25653;SDS011;13511;48.622;9.230;2023-03-25T04:05:10;6.15;;;5.95;;
25653;SDS011;13511;48.622;9.230;2023-03-25T04:07:40;6.28;;;5.97;;
25653;SDS011;13511;48.622;9.230;2023-03-25T04:10:13;6.40;;;6.10;;
25653;SDS011;13511;48.622;9.230;2023-03-25T04:12:42;6.22;;;5.80;;
25653;SDS011;13511;48.622;9.230;2023-03-25T04:15:09;6.47;;;6.20;;
25653;SDS011;13511;48.622;9.230;2023-03-25T04:17:35;6.55;;;6.25;;
25653;SDS011;13511;48.622;9.230;2023-03-25T04:20:02;6.93;;;6.43;;
25653;SDS011;13511;48.622;9.230;2023-03-25T04:22:35;6.57;;;6.28;;
25653;SDS011;13511;48.622;9.230;2023-03-25T04:25:09;7.40;;;6.90;;
25653;SDS011;13511;48.622;9.230;2023-03-25T04:27:36;6.40;;;6.20;;
25653;SDS011;13511;48.622;9.230;2023-03-25T04:30:03;6.20;;;6.00;;
25653;SDS011;13511;48.622;9.230;2023-03-25T04:32:29;6.85;;;6.45;;
25653;SDS011;13511;48.622;9.230;2023-03-25T04:34:55;7.13;;;6.70;;
25653;SDS011;13511;48.622;9.230;2023-03-25T04:37:23;7.40;;;6.72;;
25653;SDS011;13511;48.622;9.230;2023-03-25T04:39:52;6.25;;;6.05;;
25653;SDS011;13511;48.622;9.230;2023-03-25T04:42:20;6.82;;;6.47;;
25653;SDS011;13511;48.622;9.230;2023-03-25T04:44:49;7.10;;;6.70;;
25653;SDS011;13511;48.622;9.230;2023-03-25T04:47:15;7.13;;;6.80;;
25653;SDS011;13511;48.622;9.230;2023-03-25T04:49:42;7.50;;;6.93;;
25653;SDS011;13511;48.622;9.230;2023-03-25T04:52:09;7.18;;;6.80;;
25653;SDS011;13511;48.622;9.230;2023-03-25T04:54:35;6.85;;;6.65;;
25653;SDS011;13511;48.622;9.230;2023-03-25T04:57:02;7.20;;;6.90;;
25653;SDS011;13511;48.622;9.230;2023-03-25T04:59:28;6.80;;;6.40;;
25653;SDS011;13511;48.622;9.230;2023-03-25T05:01:54;7.40;;;6.90;;
25653;SDS011;13511;48.622;9.230;2023-03-25T05:04:20;7.20;;;6.90;;
25653;SDS011;13511;48.622;9.230;2023-03-25T05:06:48;7.65;;;7.00;;
25653;SDS011;13511;48.622;9.230;2023-03-25T05:09:18;6.95;;;6.50;;
25653;SDS011;13511;48.622;9.230;2023-03-25T05:11:46;6.65;;;6.35;;
25653;SDS011;13511;48.622;9.230;2023-03-25T05:14:13;6.85;;;6.57;;
25653;SDS011;13511;48.622;9.230;2023-03-25T05:16:40;7.10;;;6.70;;
25653;SDS011;13511;48.622;9.230;2023-03-25T05:19:06;6.63;;;6.30;;
25653;SDS011;13511;48.622;9.230;2023-03-25T05:21:35;6.93;;;6.60;;
25653;SDS011;13511;48.622;9.230;2023-03-25T05:24:05;6.93;;;6.50;;
25653;SDS011;13511;48.622;9.230;2023-03-25T05:26:34;6.88;;;6.30;;
25653;SDS011;13511;48.622;9.230;2023-03-25T05:29:01;6.57;;;6.38;;
25653;SDS011;13511;48.622;9.230;2023-03-25T05:31:27;6.53;;;6.22;;
25653;SDS011;13511;48.622;9.230;2023-03-25T05:33:54;6.60;;;6.30;;
25653;SDS011;13511;48.622;9.230;2023-03-25T05:36:20;7.82;;;7.28;;
25653;SDS011;13511;48.622;9.230;2023-03-25T05:38:49;7.75;;;7.13;;
25653;SDS011;13511;48.622;9.230;2023-03-25T05:41:15;7.47;;;7.07;;
25653;SDS011;13511;48.622;9.230;2023-03-25T05:43:41;6.85;;;6.45;;
25653;SDS011;13511;48.622;9.230;2023-03-25T05:46:11;7.57;;;7.05;;
25653;SDS011;13511;48.622;9.230;2023-03-25T05:48:37;7.00;;;6.45;;
25653;SDS011;13511;48.622;9.230;2023-03-25T05:51:05;6.95;;;6.40;;
25653;SDS011;13511;48.622;9.230;2023-03-25T05:53:37;7.40;;;6.50;;
25653;SDS011;13511;48.622;9.230;2023-03-25T05:56:03;7.00;;;6.40;;
25653;SDS011;13511;48.622;9.230;2023-03-25T05:58:29;7.00;;;6.28;;
25653;SDS011;13511;48.622;9.230;2023-03-25T06:00:56;6.78;;;6.38;;
25653;SDS011;13511;48.622;9.230;2023-03-25T06:03:24;6.90;;;6.40;;
25653;SDS011;13511;48.622;9.230;2023-03-25T06:05:51;8.85;;;6.50;;
25653;SDS011;13511;48.622;9.230;2023-03-25T06:08:17;7.70;;;7.03;;
25653;SDS011;13511;48.622;9.230;2023-03-25T06:10:50;7.45;;;6.63;;
25653;SDS011;13511;48.622;9.230;2023-03-25T06:13:18;7.90;;;6.43;;
25653;SDS011;13511;48.622;9.230;2023-03-25T06:15:44;6.50;;;6.13;;
25653;SDS011;13511;48.622;9.230;2023-03-25T06:18:10;6.70;;;6.10;;
25653;SDS011;13511;48.622;9.230;2023-03-25T06:20:36;7.13;;;6.47;;
25653;SDS011;13511;48.622;9.230;2023-03-25T06:23:02;6.65;;;6.05;;
25653;SDS011;13511;48.622;9.230;2023-03-25T06:25:28;7.38;;;6.25;;
25653;SDS011;13511;48.622;9.230;2023-03-25T06:27:55;6.40;;;6.00;;
25653;SDS011;13511;48.622;9.230;2023-03-25T06:30:25;6.13;;;5.72;;
25653;SDS011;13511;48.622;9.230;2023-03-25T06:32:51;6.72;;;6.20;;
25653;SDS011;13511;48.622;9.230;2023-03-25T06:35:19;6.30;;;5.95;;
25653;SDS011;13511;48.622;9.230;2023-03-25T06:37:46;7.07;;;6.32;;
25653;SDS011;13511;48.622;9.230;2023-03-25T06:40:13;7.03;;;6.40;;
25653;SDS011;13511;48.622;9.230;2023-03-25T06:42:39;6.68;;;6.38;;
25653;SDS011;13511;48.622;9.230;2023-03-25T06:45:08;7.50;;;6.50;;
25653;SDS011;13511;48.622;9.230;2023-03-25T06:47:34;6.55;;;6.20;;
25653;SDS011;13511;48.622;9.230;2023-03-25T06:50:00;7.20;;;6.60;;
25653;SDS011;13511;48.622;9.230;2023-03-25T06:52:26;6.70;;;6.20;;
25653;SDS011;13511;48.622;9.230;2023-03-25T06:54:52;6.82;;;6.20;;
25653;SDS011;13511;48.622;9.230;2023-03-25T06:57:18;7.95;;;6.28;;
25653;SDS011;13511;48.622;9.230;2023-03-25T06:59:45;6.72;;;6.13;;
25653;SDS011;13511;48.622;9.230;2023-03-25T07:02:12;6.80;;;6.25;;
25653;SDS011;13511;48.622;9.230;2023-03-25T07:04:39;6.32;;;5.78;;
25653;SDS011;13511;48.622;9.230;2023-03-25T07:07:05;7.38;;;6.20;;
25653;SDS011;13511;48.622;9.230;2023-03-25T07:09:31;6.13;;;5.72;;
25653;SDS011;13511;48.622;9.230;2023-03-25T07:11:57;6.60;;;5.72;;
25653;SDS011;13511;48.622;9.230;2023-03-25T07:14:24;5.93;;;5.40;;
25653;SDS011;13511;48.622;9.230;2023-03-25T07:16:50;5.20;;;5.00;;
25653;SDS011;13511;48.622;9.230;2023-03-25T07:19:16;5.45;;;5.15;;
25653;SDS011;13511;48.622;9.230;2023-03-25T07:21:42;5.80;;;5.40;;
25653;SDS011;13511;48.622;9.230;2023-03-25T07:24:08;8.77;;;5.80;;
25653;SDS011;13511;48.622;9.230;2023-03-25T07:26:34;6.30;;;5.80;;
25653;SDS011;13511;48.622;9.230;2023-03-25T07:29:00;6.32;;;5.45;;
25653;SDS011;13511;48.622;9.230;2023-03-25T07:31:27;5.57;;;5.28;;
25653;SDS011;13511;48.622;9.230;2023-03-25T07:33:53;5.82;;;5.55;;
25653;SDS011;13511;48.622;9.230;2023-03-25T07:36:19;5.70;;;5.45;;
25653;SDS011;13511;48.622;9.230;2023-03-25T07:38:47;6.63;;;6.05;;
25653;SDS011;13511;48.622;9.230;2023-03-25T07:41:13;6.00;;;5.45;;
25653;SDS011;13511;48.622;9.230;2023-03-25T07:43:39;5.88;;;5.47;;
25653;SDS011;13511;48.622;9.230;2023-03-25T07:46:07;6.30;;;5.90;;
25653;SDS011;13511;48.622;9.230;2023-03-25T07:48:33;6.95;;;5.53;;
25653;SDS011;13511;48.622;9.230;2023-03-25T07:51:01;5.57;;;5.20;;
25653;SDS011;13511;48.622;9.230;2023-03-25T07:53:27;6.40;;;6.00;;
25653;SDS011;13511;48.622;9.230;2023-03-25T07:55:53;5.40;;;5.10;;
25653;SDS011;13511;48.622;9.230;2023-03-25T07:58:19;5.20;;;5.00;;
25653;SDS011;13511;48.622;9.230;2023-03-25T08:00:45;5.15;;;4.90;;
25653;SDS011;13511;48.622;9.230;2023-03-25T08:03:12;5.32;;;5.10;;
25653;SDS011;13511;48.622;9.230;2023-03-25T08:05:42;5.65;;;5.10;;
25653;SDS011;13511;48.622;9.230;2023-03-25T08:08:09;5.68;;;5.38;;
25653;SDS011;13511;48.622;9.230;2023-03-25T08:10:35;5.38;;;5.00;;
25653;SDS011;13511;48.622;9.230;2023-03-25T08:13:01;5.50;;;5.20;;
25653;SDS011;13511;48.622;9.230;2023-03-25T08:15:27;5.47;;;5.03;;
25653;SDS011;13511;48.622;9.230;2023-03-25T08:17:53;5.63;;;5.43;;
25653;SDS011;13511;48.622;9.230;2023-03-25T08:20:19;5.40;;;5.20;;
25653;SDS011;13511;48.622;9.230;2023-03-25T08:22:46;5.30;;;4.97;;
25653;SDS011;13511;48.622;9.230;2023-03-25T08:25:12;5.00;;;4.85;;
25653;SDS011;13511;48.622;9.230;2023-03-25T08:27:38;5.97;;;5.55;;
25653;SDS011;13511;48.622;9.230;2023-03-25T08:30:05;5.72;;;5.25;;
25653;SDS011;13511;48.622;9.230;2023-03-25T08:32:34;5.40;;;5.13;;
25653;SDS011;13511;48.622;9.230;2023-03-25T08:35:02;5.63;;;5.07;;
25653;SDS011;13511;48.622;9.230;2023-03-25T08:37:29;5.28;;;5.07;;
25653;SDS011;13511;48.622;9.230;2023-03-25T08:39:59;5.68;;;5.47;;
25653;SDS011;13511;48.622;9.230;2023-03-25T08:42:25;5.40;;;5.20;;
25653;SDS011;13511;48.622;9.230;2023-03-25T08:44:51;5.53;;;5.28;;
25653;SDS011;13511;48.622;9.230;2023-03-25T08:47:18;5.53;;;5.03;;
25653;SDS011;13511;48.622;9.230;2023-03-25T08:49:44;5.65;;;5.35;;
25653;SDS011;13511;48.622;9.230;2023-03-25T08:52:10;5.70;;;5.28;;
25653;SDS011;13511;48.622;9.230;2023-03-25T08:54:36;6.40;;;6.00;;
25653;SDS011;13511;48.622;9.230;2023-03-25T08:57:02;6.55;;;6.18;;
25653;SDS011;13511;48.622;9.230;2023-03-25T08:59:28;6.57;;;6.13;;
25653;SDS011;13511;48.622;9.230;2023-03-25T09:01:54;5.60;;;5.40;;
25653;SDS011;13511;48.622;9.230;2023-03-25T09:04:20;6.22;;;5.82;;
25653;SDS011;13511;48.622;9.230;2023-03-25T09:06:46;6.53;;;6.22;;
25653;SDS011;13511;48.622;9.230;2023-03-25T09:09:13;6.32;;;5.90;;
25653;SDS011;13511;48.622;9.230;2023-03-25T09:11:39;6.82;;;6.30;;
25653;SDS011;13511;48.622;9.230;2023-03-25T09:14:05;6.70;;;6.30;;
25653;SDS011;13511;48.622;9.230;2023-03-25T09:16:31;5.90;;;5.50;;
25653;SDS011;13511;48.622;9.230;2023-03-25T09:18:58;5.80;;;5.60;;
25653;SDS011;13511;48.622;9.230;2023-03-25T09:21:24;5.53;;;5.20;;
25653;SDS011;13511;48.622;9.230;2023-03-25T09:23:50;5.68;;;5.20;;
25653;SDS011;13511;48.622;9.230;2023-03-25T09:26:16;5.43;;;5.00;;
25653;SDS011;13511;48.622;9.230;2023-03-25T09:28:42;6.18;;;5.75;;
25653;SDS011;13511;48.622;9.230;2023-03-25T09:31:08;6.45;;;6.10;;
25653;SDS011;13511;48.622;9.230;2023-03-25T09:33:34;5.38;;;5.18;;
25653;SDS011;13511;48.622;9.230;2023-03-25T09:36:01;5.00;;;4.85;;
25653;SDS011;13511;48.622;9.230;2023-03-25T09:38:27;6.28;;;5.80;;
25653;SDS011;13511;48.622;9.230;2023-03-25T09:40:53;5.72;;;5.22;;
25653;SDS011;13511;48.622;9.230;2023-03-25T09:45:46;5.95;;;5.60;;
25653;SDS011;13511;48.622;9.230;2023-03-25T09:48:23;6.30;;;6.00;;
25653;SDS011;13511;48.622;9.230;2023-03-25T09:50:52;6.70;;;6.40;;
25653;SDS011;13511;48.622;9.230;2023-03-25T09:53:52;7.13;;;6.82;;
25653;SDS011;13511;48.622;9.230;2023-03-25T09:56:13;6.90;;;6.60;;
25653;SDS011;13511;48.622;9.230;2023-03-25T09:58:44;7.80;;;7.30;;
25653;SDS011;13511;48.622;9.230;2023-03-25T10:01:17;7.93;;;7.43;;
25653;SDS011;13511;48.622;9.230;2023-03-25T10:06:22;7.47;;;6.95;;
25653;SDS011;13511;48.622;9.230;2023-03-25T10:08:54;7.68;;;6.75;;
25653;SDS011;13511;48.622;9.230;2023-03-25T10:21:34;6.03;;;5.80;;
25653;SDS011;13511;48.622;9.230;2023-03-25T10:26:29;5.72;;;5.35;;
25653;SDS011;13511;48.622;9.230;2023-03-25T10:28:57;6.10;;;5.90;;
25653;SDS011;13511;48.622;9.230;2023-03-25T10:31:25;6.05;;;5.75;;
25653;SDS011;13511;48.622;9.230;2023-03-25T10:33:56;5.73;;;5.40;;
25653;SDS011;13511;48.622;9.230;2023-03-25T10:36:30;5.78;;;5.57;;
25653;SDS011;13511;48.622;9.230;2023-03-25T10:38:58;6.00;;;5.80;;
25653;SDS011;13511;48.622;9.230;2023-03-25T10:41:33;6.28;;;5.78;;
25653;SDS011;13511;48.622;9.230;2023-03-25T10:44:03;5.60;;;5.10;;
25653;SDS011;13511;48.622;9.230;2023-03-25T10:48:59;5.07;;;4.88;;
25653;SDS011;13511;48.622;9.230;2023-03-25T10:51:26;5.43;;;5.10;;
25653;SDS011;13511;48.622;9.230;2023-03-25T10:53:53;5.10;;;4.80;;
25653;SDS011;13511;48.622;9.230;2023-03-25T10:56:24;5.80;;;5.40;;
25653;SDS011;13511;48.622;9.230;2023-03-25T10:58:54;4.40;;;4.15;;
25653;SDS011;13511;48.622;9.230;2023-03-25T11:01:33;4.13;;;3.92;;
25653;SDS011;13511;48.622;9.230;2023-03-25T11:04:00;5.78;;;4.60;;
25653;SDS011;13511;48.622;9.230;2023-03-25T11:06:29;4.10;;;3.90;;
25653;SDS011;13511;48.622;9.230;2023-03-25T11:09:21;4.20;;;4.00;;
25653;SDS011;13511;48.622;9.230;2023-03-25T11:11:43;4.88;;;4.47;;
25653;SDS011;13511;48.622;9.230;2023-03-25T11:14:10;4.40;;;4.10;;
25653;SDS011;13511;48.622;9.230;2023-03-25T11:16:42;5.03;;;4.65;;
25653;SDS011;13511;48.622;9.230;2023-03-25T11:19:13;4.40;;;4.20;;
25653;SDS011;13511;48.622;9.230;2023-03-25T11:21:44;4.47;;;4.28;;
25653;SDS011;13511;48.622;9.230;2023-03-25T11:24:12;4.60;;;4.40;;
25653;SDS011;13511;48.622;9.230;2023-03-25T11:26:39;4.40;;;4.20;;
25653;SDS011;13511;48.622;9.230;2023-03-25T11:29:12;4.57;;;4.25;;
25653;SDS011;13511;48.622;9.230;2023-03-25T11:31:39;5.05;;;4.72;;
25653;SDS011;13511;48.622;9.230;2023-03-25T11:41:49;5.18;;;4.60;;
25653;SDS011;13511;48.622;9.230;2023-03-25T11:44:26;5.00;;;4.70;;
25653;SDS011;13511;48.622;9.230;2023-03-25T11:47:03;5.95;;;5.65;;
25653;SDS011;13511;48.622;9.230;2023-03-25T11:49:32;5.50;;;5.15;;
25653;SDS011;13511;48.622;9.230;2023-03-25T11:52:02;5.00;;;4.55;;
25653;SDS011;13511;48.622;9.230;2023-03-25T11:54:29;4.93;;;4.63;;
25653;SDS011;13511;48.622;9.230;2023-03-25T11:56:57;4.38;;;4.18;;
25653;SDS011;13511;48.622;9.230;2023-03-25T11:59:24;4.65;;;4.15;;
25653;SDS011;13511;48.622;9.230;2023-03-25T12:02:01;4.25;;;3.95;;
25653;SDS011;13511;48.622;9.230;2023-03-25T12:04:27;4.57;;;4.38;;
25653;SDS011;13511;48.622;9.230;2023-03-25T12:06:54;4.60;;;4.20;;
25653;SDS011;13511;48.622;9.230;2023-03-25T12:09:22;3.97;;;3.70;;
25653;SDS011;13511;48.622;9.230;2023-03-25T12:17:01;4.18;;;3.80;;
25653;SDS011;13511;48.622;9.230;2023-03-25T12:19:33;3.85;;;3.55;;
25653;SDS011;13511;48.622;9.230;2023-03-25T12:24:33;4.28;;;4.07;;
25653;SDS011;13511;48.622;9.230;2023-03-25T12:27:11;4.30;;;3.97;;
25653;SDS011;13511;48.622;9.230;2023-03-25T12:35:02;6.18;;;4.20;;
25653;SDS011;13511;48.622;9.230;2023-03-25T12:37:33;4.22;;;4.03;;
25653;SDS011;13511;48.622;9.230;2023-03-25T12:43:03;3.60;;;3.40;;
25653;SDS011;13511;48.622;9.230;2023-03-25T12:50:46;3.65;;;3.40;;
25653;SDS011;13511;48.622;9.230;2023-03-25T12:53:32;3.80;;;3.60;;
25653;SDS011;13511;48.622;9.230;2023-03-25T12:56:05;3.30;;;3.00;;
25653;SDS011;13511;48.622;9.230;2023-03-25T13:01:54;3.10;;;3.00;;
25653;SDS011;13511;48.622;9.230;2023-03-25T13:07:23;2.95;;;2.70;;
25653;SDS011;13511;48.622;9.230;2023-03-25T13:12:16;3.00;;;2.90;;
25653;SDS011;13511;48.622;9.230;2023-03-25T13:14:53;3.88;;;3.60;;
25653;SDS011;13511;48.622;9.230;2023-03-25T13:17:24;3.40;;;3.20;;
25653;SDS011;13511;48.622;9.230;2023-03-25T13:19:51;3.50;;;3.20;;
25653;SDS011;13511;48.622;9.230;2023-03-25T13:22:24;3.50;;;3.20;;
25653;SDS011;13511;48.622;9.230;2023-03-25T13:24:53;3.85;;;3.65;;
25653;SDS011;13511;48.622;9.230;2023-03-25T13:27:20;3.88;;;3.55;;
25653;SDS011;13511;48.622;9.230;2023-03-25T13:32:55;4.35;;;4.15;;
25653;SDS011;13511;48.622;9.230;2023-03-25T13:35:02;3.78;;;3.58;;
25653;SDS011;13511;48.622;9.230;2023-03-25T13:37:37;4.03;;;3.75;;
25653;SDS011;13511;48.622;9.230;2023-03-25T13:45:08;3.63;;;3.42;;
25653;SDS011;13511;48.622;9.230;2023-03-25T13:47:41;3.42;;;3.00;;
25653;SDS011;13511;48.622;9.230;2023-03-25T13:50:23;3.20;;;3.00;;
25653;SDS011;13511;48.622;9.230;2023-03-25T13:52:53;3.22;;;3.03;;
25653;SDS011;13511;48.622;9.230;2023-03-25T13:55:22;3.60;;;3.40;;
25653;SDS011;13511;48.622;9.230;2023-03-25T14:00:57;3.30;;;3.20;;
25653;SDS011;13511;48.622;9.230;2023-03-25T14:09:04;3.58;;;3.30;;
25653;SDS011;13511;48.622;9.230;2023-03-25T14:12:20;3.50;;;3.30;;
25653;SDS011;13511;48.622;9.230;2023-03-25T14:14:27;3.70;;;3.50;;
25653;SDS011;13511;48.622;9.230;2023-03-25T14:16:56;3.38;;;3.28;;
25653;SDS011;13511;48.622;9.230;2023-03-25T14:19:28;3.40;;;3.30;;
25653;SDS011;13511;48.622;9.230;2023-03-25T14:21:56;3.95;;;3.75;;
25653;SDS011;13511;48.622;9.230;2023-03-25T14:24:32;3.88;;;3.58;;
25653;SDS011;13511;48.622;9.230;2023-03-25T14:29:36;3.67;;;3.47;;
25653;SDS011;13511;48.622;9.230;2023-03-25T14:34:28;3.22;;;2.97;;
25653;SDS011;13511;48.622;9.230;2023-03-25T14:44:23;3.47;;;3.22;;
25653;SDS011;13511;48.622;9.230;2023-03-25T14:52:29;4.35;;;3.03;;
25653;SDS011;13511;48.622;9.230;2023-03-25T14:54:56;3.30;;;3.10;;
25653;SDS011;13511;48.622;9.230;2023-03-25T14:57:24;3.40;;;3.25;;
25653;SDS011;13511;48.622;9.230;2023-03-25T14:59:55;3.25;;;3.05;;
25653;SDS011;13511;48.622;9.230;2023-03-25T15:02:25;3.80;;;3.50;;
25653;SDS011;13511;48.622;9.230;2023-03-25T15:04:57;3.35;;;3.17;;
25653;SDS011;13511;48.622;9.230;2023-03-25T15:10:18;3.70;;;3.50;;
25653;SDS011;13511;48.622;9.230;2023-03-25T15:12:47;3.70;;;3.50;;
25653;SDS011;13511;48.622;9.230;2023-03-25T15:15:25;4.05;;;3.80;;
25653;SDS011;13511;48.622;9.230;2023-03-25T15:17:52;5.68;;;4.10;;
25653;SDS011;13511;48.622;9.230;2023-03-25T15:25:42;4.28;;;4.00;;
25653;SDS011;13511;48.622;9.230;2023-03-25T15:33:30;3.58;;;3.38;;
25653;SDS011;13511;48.622;9.230;2023-03-25T15:43:57;3.28;;;3.08;;
25653;SDS011;13511;48.622;9.230;2023-03-25T15:56:40;3.38;;;3.15;;
25653;SDS011;13511;48.622;9.230;2023-03-25T15:59:23;3.50;;;3.30;;
25653;SDS011;13511;48.622;9.230;2023-03-25T16:01:54;3.70;;;3.40;;
25653;SDS011;13511;48.622;9.230;2023-03-25T16:05:03;3.65;;;3.35;;
25653;SDS011;13511;48.622;9.230;2023-03-25T16:07:11;3.70;;;3.50;;
25653;SDS011;13511;48.622;9.230;2023-03-25T16:09:39;3.55;;;3.35;;
25653;SDS011;13511;48.622;9.230;2023-03-25T16:12:07;4.20;;;3.90;;
25653;SDS011;13511;48.622;9.230;2023-03-25T16:14:33;3.72;;;3.42;;
25653;SDS011;13511;48.622;9.230;2023-03-25T16:17:00;4.05;;;3.60;;
25653;SDS011;13511;48.622;9.230;2023-03-25T16:21:53;4.25;;;3.92;;
25653;SDS011;13511;48.622;9.230;2023-03-25T16:24:22;3.97;;;3.60;;
25653;SDS011;13511;48.622;9.230;2023-03-25T16:26:49;4.40;;;4.00;;
25653;SDS011;13511;48.622;9.230;2023-03-25T16:29:18;4.25;;;3.90;;
25653;SDS011;13511;48.622;9.230;2023-03-25T16:31:55;4.50;;;4.20;;
25653;SDS011;13511;48.622;9.230;2023-03-25T16:34:22;4.32;;;4.13;;
25653;SDS011;13511;48.622;9.230;2023-03-25T16:36:49;4.78;;;4.13;;
25653;SDS011;13511;48.622;9.230;2023-03-25T16:39:16;4.30;;;4.00;;
25653;SDS011;13511;48.622;9.230;2023-03-25T16:41:45;4.00;;;3.70;;
25653;SDS011;13511;48.622;9.230;2023-03-25T16:44:13;4.57;;;4.18;;
25653;SDS011;13511;48.622;9.230;2023-03-25T16:46:40;4.50;;;4.20;;
25653;SDS011;13511;48.622;9.230;2023-03-25T16:49:06;4.80;;;4.00;;
25653;SDS011;13511;48.622;9.230;2023-03-25T16:51:39;3.80;;;3.60;;
25653;SDS011;13511;48.622;9.230;2023-03-25T16:54:09;4.07;;;3.83;;
25653;SDS011;13511;48.622;9.230;2023-03-25T16:56:37;3.70;;;3.60;;
25653;SDS011;13511;48.622;9.230;2023-03-25T17:01:37;5.97;;;4.47;;
25653;SDS011;13511;48.622;9.230;2023-03-25T17:04:06;4.22;;;4.00;;
25653;SDS011;13511;48.622;9.230;2023-03-25T17:06:33;4.70;;;4.30;;
25653;SDS011;13511;48.622;9.230;2023-03-25T17:09:03;4.35;;;4.00;;
25653;SDS011;13511;48.622;9.230;2023-03-25T17:11:32;4.80;;;4.50;;
25653;SDS011;13511;48.622;9.230;2023-03-25T17:14:05;4.53;;;4.30;;
25653;SDS011;13511;48.622;9.230;2023-03-25T17:16:32;7.93;;;4.63;;
25653;SDS011;13511;48.622;9.230;2023-03-25T17:18:59;4.85;;;4.45;;
25653;SDS011;13511;48.622;9.230;2023-03-25T17:21:27;6.40;;;5.60;;
25653;SDS011;13511;48.622;9.230;2023-03-25T17:23:54;4.78;;;4.38;;
25653;SDS011;13511;48.622;9.230;2023-03-25T17:26:22;4.45;;;4.20;;
25653;SDS011;13511;48.622;9.230;2023-03-25T17:36:23;4.47;;;4.28;;
25653;SDS011;13511;48.622;9.230;2023-03-25T17:38:50;5.18;;;4.43;;
25653;SDS011;13511;48.622;9.230;2023-03-25T17:41:20;6.45;;;4.60;;
25653;SDS011;13511;48.622;9.230;2023-03-25T17:43:47;5.25;;;4.82;;
25653;SDS011;13511;48.622;9.230;2023-03-25T17:46:18;4.50;;;4.20;;
25653;SDS011;13511;48.622;9.230;2023-03-25T17:48:44;5.53;;;5.07;;
25653;SDS011;13511;48.622;9.230;2023-03-25T17:51:11;5.07;;;4.57;;
25653;SDS011;13511;48.622;9.230;2023-03-25T17:53:38;5.10;;;4.80;;
25653;SDS011;13511;48.622;9.230;2023-03-25T17:56:04;4.53;;;4.22;;
25653;SDS011;13511;48.622;9.230;2023-03-25T17:58:30;5.32;;;4.82;;